sensor_id;sensor_type;location;lat;lon;timestamp;P1;durP1;ratioP1;P2;durP2;ratioP2
12719;SDS011;6424;48.520;11.228;2023-12-20T00:00:37;2.90;;;2.33;;
12719;SDS011;6424;48.520;11.228;2023-12-20T00:03:22;5.13;;;2.30;;
12719;SDS011;6424;48.520;11.228;2023-12-20T00:06:07;2.70;;;2.30;;
12719;SDS011;6424;48.520;11.228;2023-12-20T00:08:52;2.97;;;2.00;;
12719;SDS011;6424;48.520;11.228;2023-12-20T00:11:37;3.47;;;2.60;;
12719;SDS011;6424;48.520;11.228;2023-12-20T00:14:22;2.30;;;2.10;;
12719;SDS011;6424;48.520;11.228;2023-12-20T00:17:06;2.67;;;2.10;;
12719;SDS011;6424;48.520;11.228;2023-12-20T00:19:51;2.10;;;1.80;;
12719;SDS011;6424;48.520;11.228;2023-12-20T00:22:35;2.90;;;2.13;;
12719;SDS011;6424;48.520;11.228;2023-12-20T00:25:19;2.77;;;2.10;;
12719;SDS011;6424;48.520;11.228;2023-12-20T00:28:04;2.70;;;1.97;;
12719;SDS011;6424;48.520;11.228;2023-12-20T00:30:50;2.10;;;1.77;;
12719;SDS011;6424;48.520;11.228;2023-12-20T00:33:34;2.67;;;1.90;;
12719;SDS011;6424;48.520;11.228;2023-12-20T00:36:18;2.17;;;1.87;;
12719;SDS011;6424;48.520;11.228;2023-12-20T00:39:02;2.90;;;2.10;;
12719;SDS011;6424;48.520;11.228;2023-12-20T00:41:48;2.90;;;2.00;;
12719;SDS011;6424;48.520;11.228;2023-12-20T00:44:32;2.10;;;1.87;;
12719;SDS011;6424;48.520;11.228;2023-12-20T00:47:16;2.80;;;2.00;;
12719;SDS011;6424;48.520;11.228;2023-12-20T00:50:00;2.20;;;1.70;;
12719;SDS011;6424;48.520;11.228;2023-12-20T00:52:45;1.90;;;1.70;;
12719;SDS011;6424;48.520;11.228;2023-12-20T00:55:29;2.10;;;1.90;;
12719;SDS011;6424;48.520;11.228;2023-12-20T00:58:13;2.83;;;1.83;;
12719;SDS011;6424;48.520;11.228;2023-12-20T01:00:58;2.60;;;2.13;;
12719;SDS011;6424;48.520;11.228;2023-12-20T01:03:43;4.37;;;2.50;;
12719;SDS011;6424;48.520;11.228;2023-12-20T01:06:27;2.60;;;1.67;;
12719;SDS011;6424;48.520;11.228;2023-12-20T01:09:12;4.23;;;2.03;;
12719;SDS011;6424;48.520;11.228;2023-12-20T01:11:56;4.53;;;1.90;;
12719;SDS011;6424;48.520;11.228;2023-12-20T01:14:40;2.70;;;2.00;;
12719;SDS011;6424;48.520;11.228;2023-12-20T01:17:24;2.93;;;2.23;;
12719;SDS011;6424;48.520;11.228;2023-12-20T01:20:08;2.43;;;1.80;;
12719;SDS011;6424;48.520;11.228;2023-12-20T01:22:53;2.53;;;1.90;;
12719;SDS011;6424;48.520;11.228;2023-12-20T01:25:38;1.70;;;1.53;;
12719;SDS011;6424;48.520;11.228;2023-12-20T01:28:23;2.20;;;1.80;;
12719;SDS011;6424;48.520;11.228;2023-12-20T01:31:07;3.20;;;1.90;;
12719;SDS011;6424;48.520;11.228;2023-12-20T01:33:52;2.23;;;1.73;;
12719;SDS011;6424;48.520;11.228;2023-12-20T01:36:37;2.80;;;1.57;;
12719;SDS011;6424;48.520;11.228;2023-12-20T01:39:21;2.40;;;1.57;;
12719;SDS011;6424;48.520;11.228;2023-12-20T01:42:05;2.97;;;1.80;;
12719;SDS011;6424;48.520;11.228;2023-12-20T01:44:49;2.20;;;1.50;;
12719;SDS011;6424;48.520;11.228;2023-12-20T01:47:34;1.93;;;1.50;;
12719;SDS011;6424;48.520;11.228;2023-12-20T01:50:20;1.90;;;1.33;;
12719;SDS011;6424;48.520;11.228;2023-12-20T01:53:05;2.07;;;1.50;;
12719;SDS011;6424;48.520;11.228;2023-12-20T01:55:54;1.43;;;1.20;;
12719;SDS011;6424;48.520;11.228;2023-12-20T01:58:43;1.83;;;1.43;;
12719;SDS011;6424;48.520;11.228;2023-12-20T02:01:29;2.07;;;1.27;;
12719;SDS011;6424;48.520;11.228;2023-12-20T02:04:15;2.03;;;1.43;;
12719;SDS011;6424;48.520;11.228;2023-12-20T02:07:00;1.43;;;1.33;;
12719;SDS011;6424;48.520;11.228;2023-12-20T02:09:45;2.07;;;1.50;;
12719;SDS011;6424;48.520;11.228;2023-12-20T02:12:29;1.50;;;1.30;;
12719;SDS011;6424;48.520;11.228;2023-12-20T02:15:14;1.37;;;1.20;;
12719;SDS011;6424;48.520;11.228;2023-12-20T02:17:59;1.63;;;1.40;;
12719;SDS011;6424;48.520;11.228;2023-12-20T02:20:43;1.57;;;1.17;;
12719;SDS011;6424;48.520;11.228;2023-12-20T02:23:28;1.53;;;1.40;;
12719;SDS011;6424;48.520;11.228;2023-12-20T02:26:12;3.60;;;1.20;;
12719;SDS011;6424;48.520;11.228;2023-12-20T02:28:57;2.23;;;1.40;;
12719;SDS011;6424;48.520;11.228;2023-12-20T02:31:43;1.40;;;1.20;;
12719;SDS011;6424;48.520;11.228;2023-12-20T02:34:27;1.03;;;0.93;;
12719;SDS011;6424;48.520;11.228;2023-12-20T02:37:11;2.03;;;1.23;;
12719;SDS011;6424;48.520;11.228;2023-12-20T02:39:55;2.60;;;1.17;;
12719;SDS011;6424;48.520;11.228;2023-12-20T02:42:40;1.90;;;1.30;;
12719;SDS011;6424;48.520;11.228;2023-12-20T02:45:24;1.30;;;1.20;;
12719;SDS011;6424;48.520;11.228;2023-12-20T02:48:09;1.77;;;1.33;;
12719;SDS011;6424;48.520;11.228;2023-12-20T02:50:53;1.37;;;1.20;;
12719;SDS011;6424;48.520;11.228;2023-12-20T02:53:39;2.00;;;1.50;;
12719;SDS011;6424;48.520;11.228;2023-12-20T02:56:23;2.00;;;1.40;;
12719;SDS011;6424;48.520;11.228;2023-12-20T02:59:07;1.47;;;1.30;;
12719;SDS011;6424;48.520;11.228;2023-12-20T03:01:52;1.70;;;1.50;;
12719;SDS011;6424;48.520;11.228;2023-12-20T03:04:36;1.47;;;1.27;;
12719;SDS011;6424;48.520;11.228;2023-12-20T03:07:20;2.30;;;1.57;;
12719;SDS011;6424;48.520;11.228;2023-12-20T03:10:05;1.40;;;1.30;;
12719;SDS011;6424;48.520;11.228;2023-12-20T03:12:51;2.20;;;1.43;;
12719;SDS011;6424;48.520;11.228;2023-12-20T03:15:35;1.33;;;1.17;;
12719;SDS011;6424;48.520;11.228;2023-12-20T03:18:20;2.87;;;2.23;;
12719;SDS011;6424;48.520;11.228;2023-12-20T03:21:04;2.57;;;1.20;;
12719;SDS011;6424;48.520;11.228;2023-12-20T03:23:49;2.40;;;1.50;;
12719;SDS011;6424;48.520;11.228;2023-12-20T03:26:33;1.47;;;1.33;;
12719;SDS011;6424;48.520;11.228;2023-12-20T03:29:18;1.73;;;1.40;;
12719;SDS011;6424;48.520;11.228;2023-12-20T03:32:02;3.13;;;1.87;;
12719;SDS011;6424;48.520;11.228;2023-12-20T03:34:47;3.80;;;1.83;;
12719;SDS011;6424;48.520;11.228;2023-12-20T03:37:31;1.97;;;1.77;;
12719;SDS011;6424;48.520;11.228;2023-12-20T03:40:16;2.73;;;1.60;;
12719;SDS011;6424;48.520;11.228;2023-12-20T03:43:00;2.27;;;1.67;;
12719;SDS011;6424;48.520;11.228;2023-12-20T03:45:44;2.10;;;1.90;;
12719;SDS011;6424;48.520;11.228;2023-12-20T03:48:29;3.30;;;2.40;;
12719;SDS011;6424;48.520;11.228;2023-12-20T03:51:17;2.10;;;1.90;;
12719;SDS011;6424;48.520;11.228;2023-12-20T03:54:01;3.17;;;2.30;;
12719;SDS011;6424;48.520;11.228;2023-12-20T03:56:45;2.17;;;1.97;;
12719;SDS011;6424;48.520;11.228;2023-12-20T03:59:29;2.90;;;1.87;;
12719;SDS011;6424;48.520;11.228;2023-12-20T04:02:13;2.80;;;2.10;;
12719;SDS011;6424;48.520;11.228;2023-12-20T04:04:58;2.53;;;2.20;;
12719;SDS011;6424;48.520;11.228;2023-12-20T04:07:42;2.47;;;2.27;;
12719;SDS011;6424;48.520;11.228;2023-12-20T04:10:27;4.10;;;2.80;;
12719;SDS011;6424;48.520;11.228;2023-12-20T04:13:11;2.80;;;2.30;;
12719;SDS011;6424;48.520;11.228;2023-12-20T04:15:56;3.93;;;2.80;;
12719;SDS011;6424;48.520;11.228;2023-12-20T04:18:40;3.20;;;2.50;;
12719;SDS011;6424;48.520;11.228;2023-12-20T04:21:24;3.60;;;2.50;;
12719;SDS011;6424;48.520;11.228;2023-12-20T04:24:08;3.30;;;3.00;;
12719;SDS011;6424;48.520;11.228;2023-12-20T04:26:52;2.90;;;2.60;;
12719;SDS011;6424;48.520;11.228;2023-12-20T04:29:37;2.93;;;2.40;;
12719;SDS011;6424;48.520;11.228;2023-12-20T04:32:21;4.47;;;2.70;;
12719;SDS011;6424;48.520;11.228;2023-12-20T04:35:06;4.53;;;2.67;;
12719;SDS011;6424;48.520;11.228;2023-12-20T04:37:52;2.80;;;2.50;;
12719;SDS011;6424;48.520;11.228;2023-12-20T04:40:36;3.00;;;2.70;;
12719;SDS011;6424;48.520;11.228;2023-12-20T04:43:21;3.13;;;2.60;;
12719;SDS011;6424;48.520;11.228;2023-12-20T04:46:06;5.60;;;4.63;;
12719;SDS011;6424;48.520;11.228;2023-12-20T04:48:50;3.70;;;2.57;;
12719;SDS011;6424;48.520;11.228;2023-12-20T04:51:35;2.70;;;2.30;;
12719;SDS011;6424;48.520;11.228;2023-12-20T04:54:19;3.10;;;2.43;;
12719;SDS011;6424;48.520;11.228;2023-12-20T04:57:03;4.00;;;2.70;;
12719;SDS011;6424;48.520;11.228;2023-12-20T04:59:48;2.90;;;2.60;;
12719;SDS011;6424;48.520;11.228;2023-12-20T05:02:32;4.80;;;2.70;;
12719;SDS011;6424;48.520;11.228;2023-12-20T05:05:16;3.03;;;2.73;;
12719;SDS011;6424;48.520;11.228;2023-12-20T05:08:01;2.57;;;2.37;;
12719;SDS011;6424;48.520;11.228;2023-12-20T05:10:46;3.57;;;2.63;;
12719;SDS011;6424;48.520;11.228;2023-12-20T05:13:30;2.40;;;2.20;;
12719;SDS011;6424;48.520;11.228;2023-12-20T05:16:14;2.20;;;1.90;;
12719;SDS011;6424;48.520;11.228;2023-12-20T05:19:01;2.47;;;2.27;;
12719;SDS011;6424;48.520;11.228;2023-12-20T05:21:50;3.23;;;2.50;;
12719;SDS011;6424;48.520;11.228;2023-12-20T05:24:34;2.30;;;2.10;;
12719;SDS011;6424;48.520;11.228;2023-12-20T05:27:18;3.00;;;2.40;;
12719;SDS011;6424;48.520;11.228;2023-12-20T05:30:02;2.90;;;2.50;;
12719;SDS011;6424;48.520;11.228;2023-12-20T05:32:48;8.23;;;6.47;;
12719;SDS011;6424;48.520;11.228;2023-12-20T05:35:32;3.20;;;2.50;;
12719;SDS011;6424;48.520;11.228;2023-12-20T05:38:16;3.50;;;3.13;;
12719;SDS011;6424;48.520;11.228;2023-12-20T05:41:00;5.93;;;3.70;;
12719;SDS011;6424;48.520;11.228;2023-12-20T05:43:45;3.30;;;2.73;;
12719;SDS011;6424;48.520;11.228;2023-12-20T05:46:29;3.00;;;2.50;;
12719;SDS011;6424;48.520;11.228;2023-12-20T05:49:13;3.47;;;1.93;;
12719;SDS011;6424;48.520;11.228;2023-12-20T05:51:58;2.60;;;2.40;;
12719;SDS011;6424;48.520;11.228;2023-12-20T05:54:42;2.30;;;2.10;;
12719;SDS011;6424;48.520;11.228;2023-12-20T05:57:26;2.57;;;2.27;;
12719;SDS011;6424;48.520;11.228;2023-12-20T06:00:11;2.40;;;2.20;;
12719;SDS011;6424;48.520;11.228;2023-12-20T06:02:57;2.07;;;1.87;;
12719;SDS011;6424;48.520;11.228;2023-12-20T06:05:41;2.00;;;1.80;;
12719;SDS011;6424;48.520;11.228;2023-12-20T06:08:25;2.60;;;2.30;;
12719;SDS011;6424;48.520;11.228;2023-12-20T06:11:09;2.53;;;1.93;;
12719;SDS011;6424;48.520;11.228;2023-12-20T06:13:53;2.07;;;1.87;;
12719;SDS011;6424;48.520;11.228;2023-12-20T06:16:38;1.90;;;1.80;;
12719;SDS011;6424;48.520;11.228;2023-12-20T06:19:22;2.23;;;1.90;;
12719;SDS011;6424;48.520;11.228;2023-12-20T06:22:06;1.83;;;1.73;;
12719;SDS011;6424;48.520;11.228;2023-12-20T06:24:50;2.50;;;1.87;;
12719;SDS011;6424;48.520;11.228;2023-12-20T06:27:35;2.00;;;1.80;;
12719;SDS011;6424;48.520;11.228;2023-12-20T06:30:19;2.07;;;1.80;;
12719;SDS011;6424;48.520;11.228;2023-12-20T06:33:04;1.87;;;1.73;;
12719;SDS011;6424;48.520;11.228;2023-12-20T06:35:50;2.00;;;1.80;;
12719;SDS011;6424;48.520;11.228;2023-12-20T06:38:34;2.63;;;2.10;;
12719;SDS011;6424;48.520;11.228;2023-12-20T06:41:18;1.93;;;1.73;;
12719;SDS011;6424;48.520;11.228;2023-12-20T06:44:03;2.07;;;1.70;;
12719;SDS011;6424;48.520;11.228;2023-12-20T06:46:47;2.77;;;1.90;;
12719;SDS011;6424;48.520;11.228;2023-12-20T06:49:32;2.03;;;1.83;;
12719;SDS011;6424;48.520;11.228;2023-12-20T06:52:16;2.33;;;1.83;;
12719;SDS011;6424;48.520;11.228;2023-12-20T06:55:00;2.00;;;1.80;;
12719;SDS011;6424;48.520;11.228;2023-12-20T06:57:45;3.73;;;1.97;;
12719;SDS011;6424;48.520;11.228;2023-12-20T07:00:29;2.93;;;1.93;;
12719;SDS011;6424;48.520;11.228;2023-12-20T07:03:14;3.30;;;2.50;;
12719;SDS011;6424;48.520;11.228;2023-12-20T07:05:58;2.10;;;1.90;;
12719;SDS011;6424;48.520;11.228;2023-12-20T07:08:43;2.93;;;2.63;;
12719;SDS011;6424;48.520;11.228;2023-12-20T07:11:28;2.27;;;2.00;;
12719;SDS011;6424;48.520;11.228;2023-12-20T07:14:13;2.53;;;2.00;;
12719;SDS011;6424;48.520;11.228;2023-12-20T07:16:58;3.80;;;2.10;;
12719;SDS011;6424;48.520;11.228;2023-12-20T07:19:42;4.37;;;2.17;;
12719;SDS011;6424;48.520;11.228;2023-12-20T07:22:26;2.63;;;1.83;;
12719;SDS011;6424;48.520;11.228;2023-12-20T07:25:10;2.20;;;1.80;;
12719;SDS011;6424;48.520;11.228;2023-12-20T07:27:54;4.70;;;3.43;;
12719;SDS011;6424;48.520;11.228;2023-12-20T07:30:39;4.27;;;3.87;;
12719;SDS011;6424;48.520;11.228;2023-12-20T07:33:23;5.63;;;4.90;;
12719;SDS011;6424;48.520;11.228;2023-12-20T07:36:07;11.17;;;9.33;;
12719;SDS011;6424;48.520;11.228;2023-12-20T07:38:52;5.20;;;4.70;;
12719;SDS011;6424;48.520;11.228;2023-12-20T07:41:36;2.80;;;2.60;;
12719;SDS011;6424;48.520;11.228;2023-12-20T07:44:20;3.70;;;2.97;;
12719;SDS011;6424;48.520;11.228;2023-12-20T07:47:05;2.77;;;2.53;;
12719;SDS011;6424;48.520;11.228;2023-12-20T07:49:49;4.23;;;3.50;;
12719;SDS011;6424;48.520;11.228;2023-12-20T07:52:35;3.53;;;3.23;;
12719;SDS011;6424;48.520;11.228;2023-12-20T07:55:19;3.50;;;3.10;;
12719;SDS011;6424;48.520;11.228;2023-12-20T07:58:04;3.33;;;3.03;;
12719;SDS011;6424;48.520;11.228;2023-12-20T08:00:48;4.13;;;3.63;;
12719;SDS011;6424;48.520;11.228;2023-12-20T08:03:32;4.27;;;3.47;;
12719;SDS011;6424;48.520;11.228;2023-12-20T08:06:17;6.43;;;4.77;;
12719;SDS011;6424;48.520;11.228;2023-12-20T08:09:01;5.50;;;4.70;;
12719;SDS011;6424;48.520;11.228;2023-12-20T08:11:46;5.50;;;5.00;;
12719;SDS011;6424;48.520;11.228;2023-12-20T08:14:31;6.70;;;5.03;;
12719;SDS011;6424;48.520;11.228;2023-12-20T08:17:15;6.10;;;5.50;;
12719;SDS011;6424;48.520;11.228;2023-12-20T08:20:00;11.40;;;5.90;;
12719;SDS011;6424;48.520;11.228;2023-12-20T08:22:44;8.20;;;7.20;;
12719;SDS011;6424;48.520;11.228;2023-12-20T08:25:29;7.97;;;6.83;;
12719;SDS011;6424;48.520;11.228;2023-12-20T08:28:13;9.20;;;7.30;;
12719;SDS011;6424;48.520;11.228;2023-12-20T08:30:57;9.33;;;8.10;;
12719;SDS011;6424;48.520;11.228;2023-12-20T08:33:41;8.30;;;7.40;;
12719;SDS011;6424;48.520;11.228;2023-12-20T08:36:29;8.77;;;6.90;;
12719;SDS011;6424;48.520;11.228;2023-12-20T08:39:13;8.60;;;7.17;;
12719;SDS011;6424;48.520;11.228;2023-12-20T08:41:57;8.70;;;7.30;;
12719;SDS011;6424;48.520;11.228;2023-12-20T08:44:42;9.10;;;7.77;;
12719;SDS011;6424;48.520;11.228;2023-12-20T08:47:27;8.70;;;7.80;;
12719;SDS011;6424;48.520;11.228;2023-12-20T08:50:12;8.57;;;7.67;;
12719;SDS011;6424;48.520;11.228;2023-12-20T08:52:56;8.87;;;7.23;;
12719;SDS011;6424;48.520;11.228;2023-12-20T08:55:41;9.27;;;7.60;;
12719;SDS011;6424;48.520;11.228;2023-12-20T08:58:26;8.30;;;7.50;;
12719;SDS011;6424;48.520;11.228;2023-12-20T09:01:10;8.90;;;7.37;;
12719;SDS011;6424;48.520;11.228;2023-12-20T09:03:55;9.03;;;8.13;;
12719;SDS011;6424;48.520;11.228;2023-12-20T09:06:39;9.43;;;7.43;;
12719;SDS011;6424;48.520;11.228;2023-12-20T09:09:23;8.97;;;7.17;;
12719;SDS011;6424;48.520;11.228;2023-12-20T09:12:07;7.97;;;6.33;;
12719;SDS011;6424;48.520;11.228;2023-12-20T09:14:52;7.73;;;6.80;;
12719;SDS011;6424;48.520;11.228;2023-12-20T09:17:36;7.93;;;6.70;;
12719;SDS011;6424;48.520;11.228;2023-12-20T09:20:20;6.60;;;5.80;;
12719;SDS011;6424;48.520;11.228;2023-12-20T09:23:07;6.80;;;6.10;;
12719;SDS011;6424;48.520;11.228;2023-12-20T09:25:52;6.63;;;6.00;;
12719;SDS011;6424;48.520;11.228;2023-12-20T09:28:37;6.63;;;5.77;;
12719;SDS011;6424;48.520;11.228;2023-12-20T09:31:24;5.30;;;4.80;;
12719;SDS011;6424;48.520;11.228;2023-12-20T09:34:08;6.27;;;5.40;;
12719;SDS011;6424;48.520;11.228;2023-12-20T09:36:53;6.27;;;5.63;;
12719;SDS011;6424;48.520;11.228;2023-12-20T09:39:37;5.30;;;4.80;;
12719;SDS011;6424;48.520;11.228;2023-12-20T09:42:25;6.80;;;5.17;;
12719;SDS011;6424;48.520;11.228;2023-12-20T09:45:21;6.07;;;4.63;;
12719;SDS011;6424;48.520;11.228;2023-12-20T09:48:06;5.73;;;5.00;;
12719;SDS011;6424;48.520;11.228;2023-12-20T09:50:54;5.93;;;4.97;;
12719;SDS011;6424;48.520;11.228;2023-12-20T09:53:40;5.13;;;4.63;;
12719;SDS011;6424;48.520;11.228;2023-12-20T09:56:25;5.40;;;4.90;;
12719;SDS011;6424;48.520;11.228;2023-12-20T09:59:10;5.03;;;4.37;;
12719;SDS011;6424;48.520;11.228;2023-12-20T10:01:55;4.40;;;3.97;;
12719;SDS011;6424;48.520;11.228;2023-12-20T10:04:46;4.53;;;4.07;;
12719;SDS011;6424;48.520;11.228;2023-12-20T10:07:37;4.47;;;3.73;;
12719;SDS011;6424;48.520;11.228;2023-12-20T10:10:21;4.70;;;4.30;;
12719;SDS011;6424;48.520;11.228;2023-12-20T10:13:07;3.47;;;3.03;;
12719;SDS011;6424;48.520;11.228;2023-12-20T10:15:54;3.97;;;3.30;;
12719;SDS011;6424;48.520;11.228;2023-12-20T10:18:39;3.90;;;3.40;;
12719;SDS011;6424;48.520;11.228;2023-12-20T10:21:23;3.63;;;3.33;;
12719;SDS011;6424;48.520;11.228;2023-12-20T10:24:10;5.00;;;3.80;;
12719;SDS011;6424;48.520;11.228;2023-12-20T10:27:04;2.83;;;2.63;;
12719;SDS011;6424;48.520;11.228;2023-12-20T10:29:49;3.80;;;3.40;;
12719;SDS011;6424;48.520;11.228;2023-12-20T10:32:34;4.00;;;3.10;;
12719;SDS011;6424;48.520;11.228;2023-12-20T10:35:19;4.60;;;3.83;;
12719;SDS011;6424;48.520;11.228;2023-12-20T10:38:05;7.80;;;5.10;;
12719;SDS011;6424;48.520;11.228;2023-12-20T10:40:56;6.83;;;4.53;;
12719;SDS011;6424;48.520;11.228;2023-12-20T10:43:43;4.97;;;4.47;;
12719;SDS011;6424;48.520;11.228;2023-12-20T10:46:29;6.17;;;4.73;;
12719;SDS011;6424;48.520;11.228;2023-12-20T10:49:15;6.87;;;4.87;;
12719;SDS011;6424;48.520;11.228;2023-12-20T10:52:01;15.87;;;8.43;;
12719;SDS011;6424;48.520;11.228;2023-12-20T10:54:47;5.17;;;3.83;;
12719;SDS011;6424;48.520;11.228;2023-12-20T10:57:32;6.13;;;4.50;;
12719;SDS011;6424;48.520;11.228;2023-12-20T11:00:19;3.80;;;3.07;;
12719;SDS011;6424;48.520;11.228;2023-12-20T11:03:06;3.03;;;2.40;;
12719;SDS011;6424;48.520;11.228;2023-12-20T11:05:55;2.30;;;2.10;;
12719;SDS011;6424;48.520;11.228;2023-12-20T11:15:31;2.67;;;2.20;;
12719;SDS011;6424;48.520;11.228;2023-12-20T11:18:16;2.30;;;2.07;;
12719;SDS011;6424;48.520;11.228;2023-12-20T11:21:02;2.27;;;2.07;;
12719;SDS011;6424;48.520;11.228;2023-12-20T11:23:49;2.13;;;1.80;;
12719;SDS011;6424;48.520;11.228;2023-12-20T11:26:33;2.13;;;1.93;;
12719;SDS011;6424;48.520;11.228;2023-12-20T11:29:34;2.10;;;1.90;;
12719;SDS011;6424;48.520;11.228;2023-12-20T11:37:59;10.00;;;8.33;;
12719;SDS011;6424;48.520;11.228;2023-12-20T11:40:44;3.80;;;3.50;;
12719;SDS011;6424;48.520;11.228;2023-12-20T11:46:18;2.90;;;1.70;;
12719;SDS011;6424;48.520;11.228;2023-12-20T11:49:02;1.47;;;1.37;;
12719;SDS011;6424;48.520;11.228;2023-12-20T11:51:46;1.40;;;1.30;;
12719;SDS011;6424;48.520;11.228;2023-12-20T11:54:31;2.40;;;2.30;;
12719;SDS011;6424;48.520;11.228;2023-12-20T11:57:15;2.37;;;1.80;;
12719;SDS011;6424;48.520;11.228;2023-12-20T12:00:00;2.20;;;2.00;;
12719;SDS011;6424;48.520;11.228;2023-12-20T12:02:54;2.30;;;2.10;;
12719;SDS011;6424;48.520;11.228;2023-12-20T12:05:40;2.30;;;2.10;;
12719;SDS011;6424;48.520;11.228;2023-12-20T12:08:24;3.50;;;2.77;;
12719;SDS011;6424;48.520;11.228;2023-12-20T12:11:09;2.77;;;1.80;;
12719;SDS011;6424;48.520;11.228;2023-12-20T12:13:54;1.60;;;1.30;;
12719;SDS011;6424;48.520;11.228;2023-12-20T12:16:38;2.13;;;1.70;;
12719;SDS011;6424;48.520;11.228;2023-12-20T12:19:22;1.73;;;1.60;;
12719;SDS011;6424;48.520;11.228;2023-12-20T12:22:08;2.80;;;1.73;;
12719;SDS011;6424;48.520;11.228;2023-12-20T12:25:08;2.20;;;1.40;;
12719;SDS011;6424;48.520;11.228;2023-12-20T12:27:55;1.87;;;1.57;;
12719;SDS011;6424;48.520;11.228;2023-12-20T12:30:40;2.90;;;1.90;;
12719;SDS011;6424;48.520;11.228;2023-12-20T12:33:25;3.30;;;1.70;;
12719;SDS011;6424;48.520;11.228;2023-12-20T12:36:10;4.77;;;1.80;;
12719;SDS011;6424;48.520;11.228;2023-12-20T12:38:58;1.43;;;1.30;;
12719;SDS011;6424;48.520;11.228;2023-12-20T12:41:48;1.80;;;1.50;;
12719;SDS011;6424;48.520;11.228;2023-12-20T12:44:32;2.03;;;1.73;;
12719;SDS011;6424;48.520;11.228;2023-12-20T12:47:16;5.07;;;1.77;;
12719;SDS011;6424;48.520;11.228;2023-12-20T12:50:00;2.63;;;1.30;;
12719;SDS011;6424;48.520;11.228;2023-12-20T12:52:45;2.40;;;1.10;;
12719;SDS011;6424;48.520;11.228;2023-12-20T12:55:29;5.20;;;1.30;;
12719;SDS011;6424;48.520;11.228;2023-12-20T12:58:14;1.57;;;1.20;;
12719;SDS011;6424;48.520;11.228;2023-12-20T13:00:58;3.40;;;1.50;;
12719;SDS011;6424;48.520;11.228;2023-12-20T13:03:43;2.83;;;1.17;;
12719;SDS011;6424;48.520;11.228;2023-12-20T13:06:27;3.53;;;1.40;;
12719;SDS011;6424;48.520;11.228;2023-12-20T13:09:11;4.10;;;1.40;;
12719;SDS011;6424;48.520;11.228;2023-12-20T13:11:55;3.27;;;1.40;;
12719;SDS011;6424;48.520;11.228;2023-12-20T13:14:40;1.97;;;1.50;;
12719;SDS011;6424;48.520;11.228;2023-12-20T13:17:24;4.07;;;1.70;;
12719;SDS011;6424;48.520;11.228;2023-12-20T13:20:09;2.53;;;1.50;;
12719;SDS011;6424;48.520;11.228;2023-12-20T13:22:53;4.10;;;1.57;;
12719;SDS011;6424;48.520;11.228;2023-12-20T13:25:38;3.80;;;1.40;;
12719;SDS011;6424;48.520;11.228;2023-12-20T13:28:22;4.17;;;1.50;;
12719;SDS011;6424;48.520;11.228;2023-12-20T13:31:06;11.60;;;10.70;;
12719;SDS011;6424;48.520;11.228;2023-12-20T13:33:50;4.67;;;4.20;;
12719;SDS011;6424;48.520;11.228;2023-12-20T13:36:35;4.20;;;3.07;;
12719;SDS011;6424;48.520;11.228;2023-12-20T13:39:20;3.40;;;2.10;;
12719;SDS011;6424;48.520;11.228;2023-12-20T13:42:04;5.33;;;1.50;;
12719;SDS011;6424;48.520;11.228;2023-12-20T13:44:49;2.87;;;2.20;;
12719;SDS011;6424;48.520;11.228;2023-12-20T13:47:33;4.23;;;1.60;;
12719;SDS011;6424;48.520;11.228;2023-12-20T13:50:18;3.27;;;1.90;;
12719;SDS011;6424;48.520;11.228;2023-12-20T13:53:02;2.07;;;1.70;;
12719;SDS011;6424;48.520;11.228;2023-12-20T13:55:47;4.43;;;2.10;;
12719;SDS011;6424;48.520;11.228;2023-12-20T13:58:33;4.73;;;1.30;;
12719;SDS011;6424;48.520;11.228;2023-12-20T14:01:17;5.17;;;2.67;;
12719;SDS011;6424;48.520;11.228;2023-12-20T14:04:01;6.30;;;3.13;;
12719;SDS011;6424;48.520;11.228;2023-12-20T14:06:45;5.47;;;2.20;;
12719;SDS011;6424;48.520;11.228;2023-12-20T14:09:29;3.67;;;1.50;;
12719;SDS011;6424;48.520;11.228;2023-12-20T14:12:14;3.73;;;1.40;;
12719;SDS011;6424;48.520;11.228;2023-12-20T14:14:58;3.03;;;1.83;;
12719;SDS011;6424;48.520;11.228;2023-12-20T14:17:42;1.93;;;1.37;;
12719;SDS011;6424;48.520;11.228;2023-12-20T14:20:26;2.90;;;1.40;;
12719;SDS011;6424;48.520;11.228;2023-12-20T14:23:10;4.07;;;1.87;;
12719;SDS011;6424;48.520;11.228;2023-12-20T14:25:55;2.93;;;1.60;;
12719;SDS011;6424;48.520;11.228;2023-12-20T14:28:42;3.60;;;1.40;;
12719;SDS011;6424;48.520;11.228;2023-12-20T14:31:26;4.37;;;1.60;;
12719;SDS011;6424;48.520;11.228;2023-12-20T14:34:10;7.47;;;1.83;;
12719;SDS011;6424;48.520;11.228;2023-12-20T14:36:54;2.40;;;1.40;;
12719;SDS011;6424;48.520;11.228;2023-12-20T14:39:38;3.43;;;1.37;;
12719;SDS011;6424;48.520;11.228;2023-12-20T14:42:25;5.80;;;1.57;;
12719;SDS011;6424;48.520;11.228;2023-12-20T14:45:09;5.13;;;1.60;;
12719;SDS011;6424;48.520;11.228;2023-12-20T14:47:53;6.63;;;1.60;;
12719;SDS011;6424;48.520;11.228;2023-12-20T14:50:37;2.87;;;1.70;;
12719;SDS011;6424;48.520;11.228;2023-12-20T14:53:24;2.67;;;1.23;;
12719;SDS011;6424;48.520;11.228;2023-12-20T14:56:08;3.73;;;1.93;;
12719;SDS011;6424;48.520;11.228;2023-12-20T14:58:52;3.03;;;1.47;;
12719;SDS011;6424;48.520;11.228;2023-12-20T15:01:36;3.97;;;1.60;;
12719;SDS011;6424;48.520;11.228;2023-12-20T15:04:20;4.10;;;1.30;;
12719;SDS011;6424;48.520;11.228;2023-12-20T15:07:12;5.00;;;1.80;;
12719;SDS011;6424;48.520;11.228;2023-12-20T15:09:56;4.33;;;1.57;;
12719;SDS011;6424;48.520;11.228;2023-12-20T15:12:40;2.40;;;1.40;;
12719;SDS011;6424;48.520;11.228;2023-12-20T15:15:24;3.40;;;1.50;;
12719;SDS011;6424;48.520;11.228;2023-12-20T15:18:10;2.90;;;1.40;;
12719;SDS011;6424;48.520;11.228;2023-12-20T15:20:54;3.83;;;1.63;;
12719;SDS011;6424;48.520;11.228;2023-12-20T15:23:38;3.13;;;1.50;;
12719;SDS011;6424;48.520;11.228;2023-12-20T15:26:24;3.80;;;1.77;;
12719;SDS011;6424;48.520;11.228;2023-12-20T15:29:10;4.23;;;1.37;;
12719;SDS011;6424;48.520;11.228;2023-12-20T15:31:55;4.77;;;1.90;;
12719;SDS011;6424;48.520;11.228;2023-12-20T15:34:39;4.03;;;1.33;;
12719;SDS011;6424;48.520;11.228;2023-12-20T15:37:24;4.23;;;1.47;;
12719;SDS011;6424;48.520;11.228;2023-12-20T15:40:10;3.80;;;1.83;;
12719;SDS011;6424;48.520;11.228;2023-12-20T15:42:55;2.97;;;2.00;;
12719;SDS011;6424;48.520;11.228;2023-12-20T15:45:40;4.60;;;2.53;;
12719;SDS011;6424;48.520;11.228;2023-12-20T15:48:24;3.90;;;2.00;;
12719;SDS011;6424;48.520;11.228;2023-12-20T15:51:13;6.60;;;2.70;;
12719;SDS011;6424;48.520;11.228;2023-12-20T15:53:58;4.13;;;2.90;;
12719;SDS011;6424;48.520;11.228;2023-12-20T15:56:47;10.17;;;3.90;;
12719;SDS011;6424;48.520;11.228;2023-12-20T15:59:31;4.50;;;2.50;;
12719;SDS011;6424;48.520;11.228;2023-12-20T16:02:15;7.20;;;4.27;;
12719;SDS011;6424;48.520;11.228;2023-12-20T16:05:00;4.20;;;2.13;;
12719;SDS011;6424;48.520;11.228;2023-12-20T16:07:46;4.63;;;2.17;;
12719;SDS011;6424;48.520;11.228;2023-12-20T16:10:30;4.97;;;2.00;;
12719;SDS011;6424;48.520;11.228;2023-12-20T16:13:15;2.10;;;1.90;;
12719;SDS011;6424;48.520;11.228;2023-12-20T16:16:02;5.10;;;2.67;;
12719;SDS011;6424;48.520;11.228;2023-12-20T16:18:47;9.20;;;5.70;;
12719;SDS011;6424;48.520;11.228;2023-12-20T16:21:31;3.47;;;2.20;;
12719;SDS011;6424;48.520;11.228;2023-12-20T16:24:15;5.13;;;2.60;;
12719;SDS011;6424;48.520;11.228;2023-12-20T16:27:00;25.53;;;12.47;;
12719;SDS011;6424;48.520;11.228;2023-12-20T16:29:44;8.90;;;4.80;;
12719;SDS011;6424;48.520;11.228;2023-12-20T16:32:28;3.87;;;2.40;;
12719;SDS011;6424;48.520;11.228;2023-12-20T16:35:12;9.40;;;6.90;;
12719;SDS011;6424;48.520;11.228;2023-12-20T16:37:56;7.87;;;3.80;;
12719;SDS011;6424;48.520;11.228;2023-12-20T16:40:40;4.47;;;2.83;;
12719;SDS011;6424;48.520;11.228;2023-12-20T16:43:26;3.43;;;1.97;;
12719;SDS011;6424;48.520;11.228;2023-12-20T16:46:10;7.27;;;4.70;;
12719;SDS011;6424;48.520;11.228;2023-12-20T16:48:55;5.27;;;3.07;;